createdAt,value
2019-03-21T00:00:41.551Z,20.30
2019-03-21T00:03:09.839Z,27.50
2019-03-21T00:05:38.093Z,18.77
2019-03-21T00:08:07.420Z,20.70
2019-03-21T00:10:38.994Z,25.83
2019-03-21T00:13:07.348Z,21.67
2019-03-21T00:15:47.632Z,20.67
2019-03-21T00:18:16.533Z,20.17
2019-03-21T00:20:44.874Z,25.20
2019-03-21T00:23:13.248Z,20.40
2019-03-21T00:25:41.607Z,21.83
2019-03-21T00:28:09.961Z,25.70
2019-03-21T00:30:38.352Z,36.70
2019-03-21T00:33:06.607Z,30.87
2019-03-21T00:35:35.019Z,32.83
2019-03-21T00:38:03.308Z,27.77
2019-03-21T00:40:37.494Z,24.10
2019-03-21T00:43:08.117Z,31.27
2019-03-21T00:45:36.427Z,23.10
2019-03-21T00:48:07.258Z,19.73
2019-03-21T00:50:35.618Z,21.40
2019-03-21T00:53:05.510Z,17.63
2019-03-21T00:55:45.992Z,24.90
2019-03-21T00:58:14.314Z,21.47
2019-03-21T01:00:45.656Z,19.33
2019-03-21T01:03:14.420Z,22.63
2019-03-21T01:05:43.068Z,18.33
2019-03-21T01:08:11.405Z,23.10
2019-03-21T01:10:39.778Z,20.73
2019-03-21T01:13:08.054Z,21.40
2019-03-21T01:15:38.664Z,21.40
2019-03-21T01:18:06.900Z,22.00
2019-03-21T01:20:35.245Z,29.73
2019-03-21T01:23:03.634Z,23.43
2019-03-21T01:25:38.045Z,29.33
2019-03-21T01:28:06.376Z,23.47
2019-03-21T01:30:36.316Z,17.73
2019-03-21T01:33:04.672Z,20.23
2019-03-21T01:35:32.963Z,18.23
2019-03-21T01:38:01.292Z,23.83
2019-03-21T01:40:41.015Z,22.80
2019-03-21T01:43:09.390Z,18.13
2019-03-21T01:45:37.723Z,22.70
2019-03-21T01:48:06.043Z,21.87
2019-03-21T01:50:39.406Z,18.17
2019-03-21T01:53:07.689Z,17.70
2019-03-21T01:55:36.037Z,18.57
2019-03-21T01:58:04.634Z,17.50
2019-03-21T02:00:36.266Z,18.53
2019-03-21T02:03:05.073Z,21.10
2019-03-21T02:05:38.392Z,16.90
2019-03-21T02:08:06.743Z,18.57
2019-03-21T02:10:35.877Z,23.23
2019-03-21T02:13:04.234Z,18.23
2019-03-21T02:15:32.602Z,27.43
2019-03-21T02:18:00.857Z,14.27
2019-03-21T02:20:29.224Z,20.23
2019-03-21T02:22:57.511Z,23.10
2019-03-21T02:25:31.990Z,21.87
2019-03-21T02:28:00.286Z,21.40
2019-03-21T02:30:31.557Z,19.27
2019-03-21T02:33:03.450Z,19.50
2019-03-21T02:35:31.794Z,16.57
2019-03-21T02:38:02.683Z,19.17
2019-03-21T02:40:31.041Z,25.20
2019-03-21T02:43:01.810Z,17.40
2019-03-21T02:45:30.187Z,21.87
2019-03-21T02:48:00.195Z,23.30
2019-03-21T02:50:42.371Z,22.43
2019-03-21T02:53:10.641Z,21.70
2019-03-21T02:55:39.069Z,17.53
2019-03-21T02:58:07.341Z,16.63
2019-03-21T03:00:41.981Z,19.90
2019-03-21T03:03:10.348Z,18.23
2019-03-21T03:05:38.947Z,16.30
2019-03-21T03:08:08.582Z,20.03
2019-03-21T03:10:57.868Z,15.43
2019-03-21T03:13:26.211Z,23.77
2019-03-21T03:15:54.612Z,19.93
2019-03-21T03:18:24.342Z,19.57
2019-03-21T03:20:52.719Z,18.67
2019-03-21T03:23:24.123Z,19.70
2019-03-21T03:25:52.419Z,19.13
2019-03-21T03:28:28.654Z,17.40
2019-03-21T03:30:58.288Z,19.47
2019-03-21T03:33:28.386Z,13.13
2019-03-21T03:35:56.761Z,17.00
2019-03-21T03:38:25.115Z,17.97
2019-03-21T03:41:04.811Z,16.90
2019-03-21T03:43:33.068Z,20.00
2019-03-21T03:46:01.491Z,14.17
2019-03-21T03:48:30.790Z,19.83
2019-03-21T03:51:01.757Z,17.20
2019-03-21T03:53:30.044Z,18.33
2019-03-21T03:55:58.379Z,22.53
2019-03-21T03:58:35.521Z,14.50
2019-03-21T04:01:03.911Z,16.80
2019-03-21T04:03:32.218Z,18.43
2019-03-21T04:06:02.163Z,28.03
2019-03-21T04:08:30.454Z,20.37
2019-03-21T04:11:01.019Z,18.70
2019-03-21T04:13:28.939Z,22.57
2019-03-21T04:15:57.281Z,18.53
2019-03-21T04:18:25.948Z,20.27
2019-03-21T04:21:03.473Z,17.67
2019-03-21T04:23:31.798Z,19.93
2019-03-21T04:26:14.821Z,19.73
2019-03-21T04:28:43.588Z,19.07
2019-03-21T04:31:13.974Z,21.27
2019-03-21T04:33:44.413Z,19.40
2019-03-21T04:36:12.776Z,14.30
2019-03-21T04:38:41.143Z,19.73
2019-03-21T04:41:09.501Z,18.00
2019-03-21T04:43:37.847Z,17.60
2019-03-21T04:46:06.177Z,18.73
2019-03-21T04:48:34.500Z,16.60
2019-03-21T04:51:02.855Z,21.33
2019-03-21T04:53:31.191Z,13.10
2019-03-21T04:55:59.499Z,13.17
2019-03-21T04:58:27.780Z,18.97
2019-03-21T05:00:57.764Z,15.63
2019-03-21T05:03:28.597Z,21.17
2019-03-21T05:05:58.960Z,21.97
2019-03-21T05:08:27.369Z,16.30
2019-03-21T05:10:55.675Z,17.73
2019-03-21T05:13:23.969Z,15.03
2019-03-21T05:15:53.827Z,18.13
2019-03-21T05:18:27.990Z,17.23
2019-03-21T05:20:56.300Z,20.67
2019-03-21T05:23:24.564Z,15.33
2019-03-21T05:25:52.964Z,15.97
2019-03-21T05:28:21.276Z,19.43
2019-03-21T05:31:14.237Z,18.70
2019-03-21T05:33:42.546Z,20.13
2019-03-21T05:36:10.939Z,16.83
2019-03-21T05:38:39.233Z,17.20
2019-03-21T05:41:07.519Z,14.23
2019-03-21T05:43:41.994Z,14.40
2019-03-21T05:46:10.246Z,20.10
2019-03-21T05:48:40.157Z,15.17
2019-03-21T05:51:08.440Z,15.27
2019-03-21T05:53:36.706Z,19.23
2019-03-21T05:56:04.975Z,18.40
2019-03-21T05:58:33.282Z,14.67
2019-03-21T06:01:04.942Z,21.07
2019-03-21T06:03:52.875Z,16.13
2019-03-21T06:06:45.467Z,17.83
2019-03-21T06:09:21.689Z,12.87
2019-03-21T06:11:53.245Z,21.60
2019-03-21T06:14:21.685Z,26.47
2019-03-21T06:16:49.987Z,22.10
2019-03-21T06:19:43.781Z,25.00
2019-03-21T06:22:18.250Z,17.57
2019-03-21T06:24:52.705Z,22.27
2019-03-21T06:27:30.686Z,20.23
2019-03-21T06:29:59.181Z,19.50
2019-03-21T06:32:28.023Z,15.07
2019-03-21T06:34:57.131Z,22.50
2019-03-21T06:37:28.485Z,27.03
2019-03-21T06:39:56.277Z,27.00
2019-03-21T06:42:24.643Z,25.53
2019-03-21T06:44:56.102Z,28.63
2019-03-21T06:47:24.502Z,24.07
2019-03-21T06:49:52.853Z,24.87
2019-03-21T06:52:21.103Z,21.63
2019-03-21T06:54:49.466Z,21.37
2019-03-21T06:57:17.799Z,19.10
2019-03-21T06:59:46.067Z,18.30
2019-03-21T07:02:14.339Z,17.87
2019-03-21T07:04:42.642Z,20.10
2019-03-21T07:07:10.896Z,21.73
2019-03-21T07:09:39.306Z,17.67
2019-03-21T07:12:07.598Z,19.70
2019-03-21T07:14:35.904Z,24.57
2019-03-21T07:17:04.175Z,17.27
2019-03-21T07:19:32.468Z,21.80
2019-03-21T07:22:00.797Z,20.87
2019-03-21T07:24:29.190Z,15.73
2019-03-21T07:26:57.614Z,21.20
2019-03-21T07:29:25.956Z,15.90
2019-03-21T07:31:54.234Z,17.50
2019-03-21T07:34:22.504Z,22.60
2019-03-21T07:36:50.905Z,18.90
2019-03-21T07:39:19.171Z,21.10
2019-03-21T07:41:47.465Z,16.70
2019-03-21T07:44:15.741Z,16.37
2019-03-21T07:46:43.992Z,15.13
2019-03-21T07:49:12.312Z,17.57
2019-03-21T07:51:40.537Z,17.17
2019-03-21T07:54:08.853Z,19.80
2019-03-21T07:56:37.135Z,16.57
2019-03-21T07:59:05.535Z,19.63
2019-03-21T08:01:33.801Z,18.30
2019-03-21T08:04:03.183Z,16.80
2019-03-21T08:06:31.527Z,18.07
2019-03-21T08:08:59.789Z,15.73
2019-03-21T08:11:28.166Z,22.63
2019-03-21T08:13:56.403Z,17.47
2019-03-21T08:16:24.706Z,15.37
2019-03-21T08:18:53.030Z,17.37
2019-03-21T08:21:21.318Z,16.33
2019-03-21T08:23:49.646Z,14.83
2019-03-21T08:26:17.953Z,21.90
2019-03-21T08:28:46.253Z,11.30
2019-03-21T08:31:14.870Z,13.70
2019-03-21T08:33:43.367Z,17.60
2019-03-21T08:36:11.748Z,13.77
2019-03-21T08:38:40.191Z,13.33
2019-03-21T08:41:08.520Z,15.47
2019-03-21T08:43:36.938Z,18.10
2019-03-21T08:46:05.262Z,15.40
2019-03-21T08:48:33.707Z,11.97
2019-03-21T08:51:08.253Z,15.33
2019-03-21T08:53:32.340Z,18.27
2019-03-21T08:56:00.699Z,18.93
2019-03-21T08:58:29.246Z,15.83
2019-03-21T09:00:57.626Z,13.50
2019-03-21T09:03:25.955Z,18.07
2019-03-21T09:05:54.271Z,15.80
2019-03-21T09:08:22.558Z,20.43
2019-03-21T09:10:50.869Z,15.70
2019-03-21T09:13:19.336Z,12.90
2019-03-21T09:15:47.718Z,12.67
2019-03-21T09:18:16.158Z,10.63
2019-03-21T09:20:44.607Z,14.73
2019-03-21T09:23:13.045Z,12.53
2019-03-21T09:25:44.002Z,13.10
2019-03-21T09:28:14.205Z,13.80
2019-03-21T09:30:42.632Z,12.00
2019-03-21T09:33:11.061Z,12.40
2019-03-21T09:35:39.387Z,16.27
2019-03-21T09:38:07.671Z,12.40
2019-03-21T09:40:36.093Z,12.03
2019-03-21T09:43:04.384Z,14.20
2019-03-21T09:45:32.787Z,11.83
2019-03-21T09:48:01.053Z,12.37
2019-03-21T09:50:29.986Z,11.10
2019-03-21T09:52:58.256Z,18.50
2019-03-21T09:55:26.559Z,15.23
2019-03-21T09:57:54.827Z,9.37
2019-03-21T10:00:31.656Z,10.00
2019-03-21T10:02:59.937Z,13.03
2019-03-21T10:05:28.203Z,14.13
2019-03-21T10:07:56.530Z,11.03
2019-03-21T10:10:32.067Z,10.90
2019-03-21T10:13:00.440Z,11.43
2019-03-21T10:15:28.710Z,14.33
2019-03-21T10:17:57.071Z,10.13
2019-03-21T10:20:25.341Z,11.77
2019-03-21T10:22:53.603Z,15.80
2019-03-21T10:25:21.994Z,13.60
2019-03-21T10:27:50.437Z,17.33
2019-03-21T10:30:35.778Z,11.83
2019-03-21T10:33:05.420Z,11.40
2019-03-21T10:35:33.674Z,15.70
2019-03-21T10:38:02.104Z,11.07
2019-03-21T10:40:30.367Z,15.63
2019-03-21T10:42:58.644Z,12.63
2019-03-21T10:45:26.929Z,10.83
2019-03-21T10:47:55.263Z,15.60
2019-03-21T10:50:38.114Z,16.30
2019-03-21T10:53:06.926Z,10.53
2019-03-21T10:55:35.268Z,11.87
2019-03-21T10:58:04.004Z,8.83
2019-03-21T11:00:32.274Z,8.50
2019-03-21T11:03:00.600Z,8.10
2019-03-21T11:05:28.908Z,10.20
2019-03-21T11:07:57.189Z,9.67
2019-03-21T11:10:25.624Z,11.90
2019-03-21T11:12:53.920Z,8.50
2019-03-21T11:15:22.185Z,10.43
2019-03-21T11:17:50.466Z,10.50
2019-03-21T11:20:28.004Z,11.77
2019-03-21T11:22:56.270Z,10.57
2019-03-21T11:25:24.571Z,12.53
2019-03-21T11:27:52.836Z,9.97
2019-03-21T11:30:29.490Z,9.33
2019-03-21T11:32:57.951Z,12.00
2019-03-21T11:35:26.311Z,9.83
2019-03-21T11:37:54.726Z,11.27
2019-03-21T11:40:23.174Z,10.87
2019-03-21T11:42:51.463Z,10.83
2019-03-21T11:45:19.855Z,15.37
2019-03-21T11:47:48.223Z,9.77
2019-03-21T11:50:16.584Z,11.37
2019-03-21T11:52:45.148Z,11.77
2019-03-21T11:55:13.608Z,7.77
2019-03-21T11:57:42.029Z,9.53
2019-03-21T12:00:12.231Z,12.40
2019-03-21T12:02:40.541Z,8.00
2019-03-21T12:05:08.947Z,6.77
2019-03-21T12:07:37.325Z,12.37
2019-03-21T12:10:07.400Z,10.43
2019-03-21T12:12:35.800Z,10.10
2019-03-21T12:15:09.729Z,10.83
2019-03-21T12:17:38.548Z,8.63
2019-03-21T12:20:09.628Z,12.70
2019-03-21T12:22:37.960Z,8.73
2019-03-21T12:25:07.165Z,14.53
2019-03-21T12:27:35.583Z,9.73
2019-03-21T12:30:06.324Z,13.87
2019-03-21T12:32:34.811Z,10.03
2019-03-21T12:35:03.503Z,8.97
2019-03-21T12:37:31.880Z,12.37
2019-03-21T12:40:00.333Z,9.83
2019-03-21T12:42:28.761Z,7.93
2019-03-21T12:44:57.110Z,9.53
2019-03-21T12:47:31.166Z,12.60
2019-03-21T12:49:55.444Z,11.70
2019-03-21T12:52:23.713Z,7.53
2019-03-21T12:54:51.988Z,8.30
2019-03-21T12:57:20.343Z,11.77
2019-03-21T12:59:48.711Z,8.17
2019-03-21T13:02:16.988Z,8.67
2019-03-21T13:04:45.275Z,10.43
2019-03-21T13:07:14.070Z,8.40
2019-03-21T13:09:42.508Z,7.23
2019-03-21T13:12:10.844Z,10.20
2019-03-21T13:14:39.276Z,6.93
2019-03-21T13:17:07.738Z,11.20
2019-03-21T13:19:36.007Z,8.30
2019-03-21T13:22:04.363Z,9.23
2019-03-21T13:24:32.715Z,10.43
2019-03-21T13:27:01.141Z,7.53
2019-03-21T13:29:29.489Z,10.23
2019-03-21T13:31:57.784Z,9.63
2019-03-21T13:34:26.035Z,11.17
2019-03-21T13:36:54.460Z,10.30
2019-03-21T13:39:22.835Z,8.03
2019-03-21T13:41:51.217Z,10.10
2019-03-21T13:44:19.706Z,9.77
2019-03-21T13:46:48.079Z,7.33
2019-03-21T13:49:16.433Z,6.83
2019-03-21T13:51:44.709Z,7.33
2019-03-21T13:54:12.959Z,7.40
2019-03-21T13:56:41.233Z,7.83
2019-03-21T13:59:09.537Z,8.00
2019-03-21T14:01:37.821Z,7.57
2019-03-21T14:04:06.142Z,7.47
2019-03-21T14:06:34.439Z,8.20
2019-03-21T14:09:02.779Z,6.53
2019-03-21T14:11:31.126Z,9.27
2019-03-21T14:13:59.431Z,8.37
2019-03-21T14:16:27.783Z,6.17
2019-03-21T14:18:56.117Z,11.60
2019-03-21T14:21:24.397Z,8.73
2019-03-21T14:23:52.657Z,11.17
2019-03-21T14:26:20.941Z,10.13
2019-03-21T14:28:49.205Z,7.87
2019-03-21T14:31:17.504Z,7.03
2019-03-21T14:33:45.853Z,7.90
2019-03-21T14:36:14.168Z,9.97
2019-03-21T14:38:42.460Z,7.27
2019-03-21T14:41:10.826Z,5.97
2019-03-21T14:43:39.197Z,10.33
2019-03-21T14:46:07.511Z,6.70
2019-03-21T14:48:36.128Z,8.80
2019-03-21T14:51:06.233Z,5.50
2019-03-21T14:53:34.724Z,8.83
2019-03-21T14:56:03.205Z,7.00
2019-03-21T14:58:31.677Z,5.17
2019-03-21T15:01:01.612Z,9.50
2019-03-21T15:03:30.055Z,8.57
2019-03-21T15:05:58.657Z,8.90
2019-03-21T15:08:26.990Z,8.07
2019-03-21T15:10:55.359Z,6.83
2019-03-21T15:13:23.902Z,5.20
2019-03-21T15:15:52.360Z,9.57
2019-03-21T15:18:20.784Z,14.80
2019-03-21T15:20:49.247Z,5.00
2019-03-21T15:23:17.732Z,5.73
2019-03-21T15:25:46.172Z,7.40
2019-03-21T15:28:14.546Z,8.13
2019-03-21T15:30:42.896Z,5.17
2019-03-21T15:33:11.529Z,8.83
2019-03-21T15:35:39.982Z,5.33
2019-03-21T15:38:08.329Z,6.27
2019-03-21T15:40:36.693Z,9.57
2019-03-21T15:43:04.985Z,7.83
2019-03-21T15:45:33.261Z,9.67
2019-03-21T15:48:01.570Z,5.60
2019-03-21T15:50:38.124Z,7.33
2019-03-21T15:53:06.905Z,8.50
2019-03-21T15:55:35.182Z,8.03
2019-03-21T15:58:03.530Z,14.13
2019-03-21T16:00:44.441Z,8.23
2019-03-21T16:03:12.920Z,6.73
2019-03-21T16:05:41.219Z,7.77
2019-03-21T16:08:09.640Z,6.27
2019-03-21T16:10:38.011Z,7.17
2019-03-21T16:13:06.278Z,13.37
2019-03-21T16:15:34.552Z,8.67
2019-03-21T16:18:02.875Z,6.30
2019-03-21T16:20:31.137Z,8.23
2019-03-21T16:22:59.405Z,8.70
2019-03-21T16:25:27.676Z,7.73
2019-03-21T16:27:55.949Z,9.83
2019-03-21T16:30:24.271Z,9.70
2019-03-21T16:32:52.547Z,10.87
2019-03-21T16:35:20.830Z,9.90
2019-03-21T16:37:49.085Z,7.90
2019-03-21T16:40:17.517Z,12.80
2019-03-21T16:42:54.908Z,6.37
2019-03-21T16:45:23.258Z,8.30
2019-03-21T16:47:51.512Z,7.03
2019-03-21T16:50:19.778Z,13.13
2019-03-21T16:52:48.066Z,7.57
2019-03-21T16:55:16.318Z,13.70
2019-03-21T16:57:44.663Z,7.07
2019-03-21T17:00:20.033Z,7.37
2019-03-21T17:02:48.288Z,7.30
2019-03-21T17:05:18.628Z,10.00
2019-03-21T17:07:46.891Z,10.80
2019-03-21T17:10:16.490Z,8.90
2019-03-21T17:12:44.901Z,10.10
2019-03-21T17:15:13.519Z,15.43
2019-03-21T17:17:41.827Z,10.50
2019-03-21T17:20:11.497Z,9.70
2019-03-21T17:22:39.753Z,10.37
2019-03-21T17:25:08.212Z,11.60
2019-03-21T17:27:36.465Z,11.87
2019-03-21T17:30:10.351Z,11.63
2019-03-21T17:32:38.605Z,10.43
2019-03-21T17:35:06.893Z,12.37
2019-03-21T17:37:35.222Z,14.53
2019-03-21T17:40:05.449Z,14.37
2019-03-21T17:42:33.754Z,8.37
2019-03-21T17:45:02.022Z,11.90
2019-03-21T17:47:30.266Z,18.10
2019-03-21T17:49:58.539Z,23.27
2019-03-21T17:52:26.797Z,13.20
2019-03-21T17:54:55.070Z,15.77
2019-03-21T17:57:33.908Z,10.93
2019-03-21T17:59:53.385Z,11.37
2019-03-21T18:02:21.657Z,14.90
2019-03-21T18:04:50.009Z,11.73
2019-03-21T18:07:18.329Z,15.00
2019-03-21T18:09:46.579Z,13.43
2019-03-21T18:12:16.640Z,11.90
2019-03-21T18:14:44.879Z,13.57
2019-03-21T18:17:13.234Z,15.17
2019-03-21T18:19:41.503Z,19.60
2019-03-21T18:22:09.777Z,12.97
2019-03-21T18:24:38.242Z,11.97
2019-03-21T18:27:06.514Z,12.63
2019-03-21T18:29:34.879Z,15.07
2019-03-21T18:32:03.301Z,19.30
2019-03-21T18:34:31.619Z,19.10
2019-03-21T18:36:59.903Z,24.13
2019-03-21T18:39:28.154Z,13.77
2019-03-21T18:41:56.406Z,15.43
2019-03-21T18:44:24.673Z,19.40
2019-03-21T18:46:52.921Z,13.87
2019-03-21T18:49:21.177Z,15.63
2019-03-21T18:51:49.435Z,22.60
2019-03-21T18:54:17.707Z,14.50
2019-03-21T18:56:45.984Z,15.07
2019-03-21T18:59:14.240Z,12.20
2019-03-21T19:01:42.514Z,13.30
2019-03-21T19:04:10.774Z,18.70
2019-03-21T19:06:39.027Z,16.67
2019-03-21T19:09:07.820Z,15.73
2019-03-21T19:11:36.088Z,17.10
2019-03-21T19:14:04.352Z,15.13
2019-03-21T19:16:32.614Z,17.60
2019-03-21T19:19:00.867Z,18.30
2019-03-21T19:21:29.120Z,19.10
2019-03-21T19:23:57.382Z,20.17
2019-03-21T19:26:25.721Z,17.47
2019-03-21T19:28:53.970Z,20.13
2019-03-21T19:31:22.253Z,16.63
2019-03-21T19:33:50.511Z,23.43
2019-03-21T19:36:18.793Z,24.20
2019-03-21T19:38:47.066Z,18.93
2019-03-21T19:41:15.334Z,15.77
2019-03-21T19:43:43.584Z,20.57
2019-03-21T19:46:11.869Z,22.60
2019-03-21T19:48:49.782Z,22.53
2019-03-21T19:51:10.153Z,17.90
2019-03-21T19:53:38.412Z,26.33
2019-03-21T19:56:08.707Z,25.27
2019-03-21T19:58:36.676Z,26.63
2019-03-21T20:01:04.941Z,24.40
2019-03-21T20:03:33.227Z,22.63
2019-03-21T20:06:01.485Z,28.30
2019-03-21T20:08:29.753Z,22.63
2019-03-21T20:10:58.029Z,16.93
2019-03-21T20:13:26.272Z,20.27
2019-03-21T20:15:54.532Z,22.87
2019-03-21T20:18:22.804Z,21.23
2019-03-21T20:20:51.068Z,27.90
2019-03-21T20:23:19.355Z,26.90
2019-03-21T20:25:47.628Z,23.97
2019-03-21T20:30:53.831Z,32.10
2019-03-21T20:33:22.101Z,28.53
2019-03-21T20:35:50.362Z,24.17
2019-03-21T20:38:18.631Z,26.20
2019-03-21T20:40:46.898Z,37.13
2019-03-21T20:43:15.149Z,25.17
2019-03-21T20:45:43.419Z,23.00
2019-03-21T20:48:11.674Z,28.27
2019-03-21T20:50:39.942Z,23.30
2019-03-21T20:53:08.214Z,20.83
2019-03-21T20:55:36.490Z,31.53
2019-03-21T20:58:04.782Z,25.93
2019-03-21T21:00:33.034Z,27.50
2019-03-21T21:03:01.330Z,24.67
2019-03-21T21:05:29.593Z,25.83
2019-03-21T21:07:57.848Z,29.27
2019-03-21T21:10:26.187Z,27.27
2019-03-21T21:12:54.448Z,28.53
2019-03-21T21:15:22.718Z,31.20
2019-03-21T21:17:50.974Z,24.20
2019-03-21T21:20:19.266Z,18.10
2019-03-21T21:22:47.515Z,20.73
2019-03-21T21:25:15.783Z,24.93
2019-03-21T21:27:49.253Z,31.43
2019-03-21T21:30:19.193Z,23.27
2019-03-21T21:32:47.465Z,28.30
2019-03-21T21:35:15.745Z,24.53
2019-03-21T21:37:44.014Z,25.30
2019-03-21T21:40:12.911Z,21.50
2019-03-21T21:42:41.166Z,26.93
2019-03-21T21:45:11.938Z,22.23
2019-03-21T21:47:40.195Z,23.30
2019-03-21T21:50:13.539Z,19.97
2019-03-21T21:52:42.444Z,31.43
2019-03-21T21:55:10.964Z,24.90
2019-03-21T21:57:39.235Z,29.33
2019-03-21T22:00:10.537Z,30.70
2019-03-21T22:02:38.800Z,26.90
2019-03-21T22:05:07.438Z,22.87
2019-03-21T22:07:35.726Z,27.17
2019-03-21T22:10:06.026Z,38.07
2019-03-21T22:12:34.483Z,23.80
2019-03-21T22:15:03.026Z,22.97
2019-03-21T22:17:31.304Z,27.40
2019-03-21T22:19:59.566Z,24.60
2019-03-21T22:22:27.832Z,24.17
2019-03-21T22:24:56.103Z,34.50
2019-03-21T22:27:24.375Z,25.07
2019-03-21T22:29:52.645Z,29.07
2019-03-21T22:32:20.916Z,26.27
2019-03-21T22:34:49.163Z,25.03
2019-03-21T22:37:17.437Z,24.97
2019-03-21T22:39:45.718Z,26.70
2019-03-21T22:42:13.970Z,29.30
2019-03-21T22:44:42.280Z,29.17
2019-03-21T22:47:10.539Z,31.33
2019-03-21T22:49:38.806Z,26.00
2019-03-21T22:52:07.071Z,34.90
2019-03-21T22:54:35.335Z,29.03
2019-03-21T22:57:03.598Z,27.37
2019-03-21T22:59:31.861Z,29.10
2019-03-21T23:02:00.116Z,27.43
2019-03-21T23:04:28.388Z,35.43
2019-03-21T23:06:56.657Z,33.00
2019-03-21T23:09:24.952Z,29.00
2019-03-21T23:11:53.208Z,34.33
2019-03-21T23:14:21.473Z,30.03
2019-03-21T23:16:49.754Z,27.27
2019-03-21T23:19:18.022Z,30.40
2019-03-21T23:21:46.281Z,29.07
2019-03-21T23:24:14.572Z,31.53
2019-03-21T23:26:52.419Z,32.97
2019-03-21T23:29:12.851Z,30.03
2019-03-21T23:31:41.116Z,29.03
2019-03-21T23:34:09.450Z,30.87
2019-03-21T23:36:37.720Z,34.57
2019-03-21T23:39:06.464Z,29.27
2019-03-21T23:41:34.726Z,26.23
2019-03-21T23:44:02.997Z,38.60
2019-03-21T23:46:31.287Z,41.70
2019-03-21T23:48:59.550Z,25.37
2019-03-21T23:51:27.830Z,30.67
2019-03-21T23:53:56.087Z,28.33
2019-03-21T23:56:24.354Z,29.20
2019-03-21T23:58:52.623Z,35.60
